sensor_id;sensor_type;location;lat;lon;timestamp;P1;durP1;ratioP1;P2;durP2;ratioP2
54977;SDS011;40873;47.522;19.106;2022-08-30T00:00:54;11.90;;;6.85;;
54977;SDS011;40873;47.522;19.106;2022-08-30T00:03:40;11.45;;;6.53;;
54977;SDS011;40873;47.522;19.106;2022-08-30T00:06:11;18.02;;;7.72;;
54977;SDS011;40873;47.522;19.106;2022-08-30T00:08:40;12.50;;;7.30;;
54977;SDS011;40873;47.522;19.106;2022-08-30T00:11:10;10.20;;;6.57;;
54977;SDS011;40873;47.522;19.106;2022-08-30T00:13:40;9.45;;;6.75;;
54977;SDS011;40873;47.522;19.106;2022-08-30T00:16:09;13.75;;;6.68;;
54977;SDS011;40873;47.522;19.106;2022-08-30T00:18:38;12.38;;;7.18;;
54977;SDS011;40873;47.522;19.106;2022-08-30T00:21:06;11.40;;;7.10;;
54977;SDS011;40873;47.522;19.106;2022-08-30T00:23:33;10.63;;;6.45;;
54977;SDS011;40873;47.522;19.106;2022-08-30T00:26:00;9.85;;;6.30;;
54977;SDS011;40873;47.522;19.106;2022-08-30T00:28:28;8.15;;;6.20;;
54977;SDS011;40873;47.522;19.106;2022-08-30T00:30:55;8.32;;;6.05;;
54977;SDS011;40873;47.522;19.106;2022-08-30T00:33:22;10.43;;;6.25;;
54977;SDS011;40873;47.522;19.106;2022-08-30T00:35:49;10.15;;;6.60;;
54977;SDS011;40873;47.522;19.106;2022-08-30T00:38:16;9.73;;;6.22;;
54977;SDS011;40873;47.522;19.106;2022-08-30T00:40:43;9.05;;;5.82;;
54977;SDS011;40873;47.522;19.106;2022-08-30T00:43:14;12.23;;;6.47;;
54977;SDS011;40873;47.522;19.106;2022-08-30T00:45:45;12.30;;;6.93;;
54977;SDS011;40873;47.522;19.106;2022-08-30T00:48:12;10.00;;;6.40;;
54977;SDS011;40873;47.522;19.106;2022-08-30T00:50:41;9.68;;;5.85;;
54977;SDS011;40873;47.522;19.106;2022-08-30T00:53:12;8.82;;;5.95;;
54977;SDS011;40873;47.522;19.106;2022-08-30T00:55:42;10.40;;;6.23;;
54977;SDS011;40873;47.522;19.106;2022-08-30T00:58:12;8.85;;;6.20;;
54977;SDS011;40873;47.522;19.106;2022-08-30T01:00:45;9.85;;;6.05;;
54977;SDS011;40873;47.522;19.106;2022-08-30T01:03:17;9.55;;;6.93;;
54977;SDS011;40873;47.522;19.106;2022-08-30T01:05:44;11.00;;;5.28;;
54977;SDS011;40873;47.522;19.106;2022-08-30T01:08:12;8.57;;;6.15;;
54977;SDS011;40873;47.522;19.106;2022-08-30T01:10:42;7.90;;;5.70;;
54977;SDS011;40873;47.522;19.106;2022-08-30T01:13:10;11.38;;;6.22;;
54977;SDS011;40873;47.522;19.106;2022-08-30T01:15:39;8.90;;;6.63;;
54977;SDS011;40873;47.522;19.106;2022-08-30T01:18:09;13.98;;;7.25;;
54977;SDS011;40873;47.522;19.106;2022-08-30T01:23:37;10.52;;;7.10;;
54977;SDS011;40873;47.522;19.106;2022-08-30T01:26:07;9.23;;;6.25;;
54977;SDS011;40873;47.522;19.106;2022-08-30T01:28:37;12.75;;;7.38;;
54977;SDS011;40873;47.522;19.106;2022-08-30T01:31:05;10.75;;;6.90;;
54977;SDS011;40873;47.522;19.106;2022-08-30T01:33:34;9.07;;;6.47;;
54977;SDS011;40873;47.522;19.106;2022-08-30T01:36:06;12.15;;;6.30;;
54977;SDS011;40873;47.522;19.106;2022-08-30T01:38:39;11.05;;;7.03;;
54977;SDS011;40873;47.522;19.106;2022-08-30T01:43:38;10.70;;;7.70;;
54977;SDS011;40873;47.522;19.106;2022-08-30T01:46:05;11.13;;;7.25;;
54977;SDS011;40873;47.522;19.106;2022-08-30T01:48:33;10.43;;;7.30;;
54977;SDS011;40873;47.522;19.106;2022-08-30T01:51:00;8.52;;;6.65;;
54977;SDS011;40873;47.522;19.106;2022-08-30T01:53:28;9.65;;;7.45;;
54977;SDS011;40873;47.522;19.106;2022-08-30T01:55:55;10.52;;;6.65;;
54977;SDS011;40873;47.522;19.106;2022-08-30T01:58:22;12.18;;;7.03;;
54977;SDS011;40873;47.522;19.106;2022-08-30T02:00:49;9.43;;;6.85;;
54977;SDS011;40873;47.522;19.106;2022-08-30T02:03:16;12.18;;;7.55;;
54977;SDS011;40873;47.522;19.106;2022-08-30T02:05:44;10.68;;;7.03;;
54977;SDS011;40873;47.522;19.106;2022-08-30T02:08:11;10.57;;;7.45;;
54977;SDS011;40873;47.522;19.106;2022-08-30T02:10:38;11.02;;;7.28;;
54977;SDS011;40873;47.522;19.106;2022-08-30T02:13:05;10.88;;;7.72;;
54977;SDS011;40873;47.522;19.106;2022-08-30T02:15:32;11.88;;;7.20;;
54977;SDS011;40873;47.522;19.106;2022-08-30T02:18:07;10.93;;;7.47;;
54977;SDS011;40873;47.522;19.106;2022-08-30T02:20:37;11.13;;;7.20;;
54977;SDS011;40873;47.522;19.106;2022-08-30T02:23:05;11.75;;;6.20;;
54977;SDS011;40873;47.522;19.106;2022-08-30T02:25:32;10.23;;;7.07;;
54977;SDS011;40873;47.522;19.106;2022-08-30T02:27:59;12.65;;;7.40;;
54977;SDS011;40873;47.522;19.106;2022-08-30T02:30:26;10.38;;;7.15;;
54977;SDS011;40873;47.522;19.106;2022-08-30T02:32:53;13.10;;;8.05;;
54977;SDS011;40873;47.522;19.106;2022-08-30T02:35:20;11.00;;;7.05;;
54977;SDS011;40873;47.522;19.106;2022-08-30T02:37:47;10.73;;;7.82;;
54977;SDS011;40873;47.522;19.106;2022-08-30T02:40:14;9.75;;;6.78;;
54977;SDS011;40873;47.522;19.106;2022-08-30T02:42:41;11.20;;;7.05;;
54977;SDS011;40873;47.522;19.106;2022-08-30T02:45:08;10.27;;;6.85;;
54977;SDS011;40873;47.522;19.106;2022-08-30T02:47:36;11.35;;;7.43;;
54977;SDS011;40873;47.522;19.106;2022-08-30T02:50:04;10.70;;;6.80;;
54977;SDS011;40873;47.522;19.106;2022-08-30T02:52:31;9.13;;;6.78;;
54977;SDS011;40873;47.522;19.106;2022-08-30T02:54:58;15.77;;;7.30;;
54977;SDS011;40873;47.522;19.106;2022-08-30T02:57:25;9.93;;;7.57;;
54977;SDS011;40873;47.522;19.106;2022-08-30T02:59:52;9.60;;;6.82;;
54977;SDS011;40873;47.522;19.106;2022-08-30T03:02:19;9.10;;;6.68;;
54977;SDS011;40873;47.522;19.106;2022-08-30T03:04:47;12.05;;;7.25;;
54977;SDS011;40873;47.522;19.106;2022-08-30T03:07:15;11.65;;;6.57;;
54977;SDS011;40873;47.522;19.106;2022-08-30T03:09:42;10.48;;;6.35;;
54977;SDS011;40873;47.522;19.106;2022-08-30T03:12:10;10.20;;;7.20;;
54977;SDS011;40873;47.522;19.106;2022-08-30T03:14:37;11.85;;;7.03;;
54977;SDS011;40873;47.522;19.106;2022-08-30T03:17:05;11.50;;;7.00;;
54977;SDS011;40873;47.522;19.106;2022-08-30T03:19:41;9.30;;;6.57;;
54977;SDS011;40873;47.522;19.106;2022-08-30T03:22:09;17.15;;;7.43;;
54977;SDS011;40873;47.522;19.106;2022-08-30T03:24:37;9.85;;;6.97;;
54977;SDS011;40873;47.522;19.106;2022-08-30T03:27:04;9.70;;;7.20;;
54977;SDS011;40873;47.522;19.106;2022-08-30T03:29:31;12.50;;;7.50;;
54977;SDS011;40873;47.522;19.106;2022-08-30T03:31:58;11.10;;;6.95;;
54977;SDS011;40873;47.522;19.106;2022-08-30T03:34:25;9.68;;;6.72;;
54977;SDS011;40873;47.522;19.106;2022-08-30T03:36:53;11.90;;;7.55;;
54977;SDS011;40873;47.522;19.106;2022-08-30T03:39:21;10.18;;;6.70;;
54977;SDS011;40873;47.522;19.106;2022-08-30T03:41:49;9.77;;;6.80;;
54977;SDS011;40873;47.522;19.106;2022-08-30T03:44:17;10.25;;;6.97;;
54977;SDS011;40873;47.522;19.106;2022-08-30T03:46:44;12.68;;;7.15;;
54977;SDS011;40873;47.522;19.106;2022-08-30T03:49:12;10.75;;;6.47;;
54977;SDS011;40873;47.522;19.106;2022-08-30T03:51:39;15.55;;;6.90;;
54977;SDS011;40873;47.522;19.106;2022-08-30T03:54:06;12.50;;;6.57;;
54977;SDS011;40873;47.522;19.106;2022-08-30T03:56:33;9.52;;;6.28;;
54977;SDS011;40873;47.522;19.106;2022-08-30T03:59:00;9.70;;;6.07;;
54977;SDS011;40873;47.522;19.106;2022-08-30T04:01:26;10.90;;;6.47;;
54977;SDS011;40873;47.522;19.106;2022-08-30T04:03:54;10.82;;;6.80;;
54977;SDS011;40873;47.522;19.106;2022-08-30T04:06:22;13.43;;;7.13;;
54977;SDS011;40873;47.522;19.106;2022-08-30T04:08:49;9.18;;;6.00;;
54977;SDS011;40873;47.522;19.106;2022-08-30T04:11:17;9.30;;;6.60;;
54977;SDS011;40873;47.522;19.106;2022-08-30T04:13:43;12.60;;;7.05;;
54977;SDS011;40873;47.522;19.106;2022-08-30T04:16:10;12.15;;;6.50;;
54977;SDS011;40873;47.522;19.106;2022-08-30T04:18:38;14.50;;;6.95;;
54977;SDS011;40873;47.522;19.106;2022-08-30T04:21:05;12.13;;;7.20;;
54977;SDS011;40873;47.522;19.106;2022-08-30T04:23:36;11.35;;;7.75;;
54977;SDS011;40873;47.522;19.106;2022-08-30T04:26:04;10.73;;;7.03;;
54977;SDS011;40873;47.522;19.106;2022-08-30T04:28:31;12.45;;;7.32;;
54977;SDS011;40873;47.522;19.106;2022-08-30T04:30:59;8.85;;;6.68;;
54977;SDS011;40873;47.522;19.106;2022-08-30T04:33:27;11.90;;;7.07;;
54977;SDS011;40873;47.522;19.106;2022-08-30T04:35:54;12.13;;;7.13;;
54977;SDS011;40873;47.522;19.106;2022-08-30T04:38:20;9.45;;;6.70;;
54977;SDS011;40873;47.522;19.106;2022-08-30T04:40:51;13.80;;;6.65;;
54977;SDS011;40873;47.522;19.106;2022-08-30T04:43:18;11.70;;;7.20;;
54977;SDS011;40873;47.522;19.106;2022-08-30T04:45:45;13.27;;;7.80;;
54977;SDS011;40873;47.522;19.106;2022-08-30T04:48:12;11.45;;;6.78;;
54977;SDS011;40873;47.522;19.106;2022-08-30T04:50:39;11.70;;;7.07;;
54977;SDS011;40873;47.522;19.106;2022-08-30T04:53:08;12.13;;;7.63;;
54977;SDS011;40873;47.522;19.106;2022-08-30T04:55:35;15.02;;;8.13;;
54977;SDS011;40873;47.522;19.106;2022-08-30T04:58:02;14.98;;;7.30;;
54977;SDS011;40873;47.522;19.106;2022-08-30T05:00:31;12.40;;;7.53;;
54977;SDS011;40873;47.522;19.106;2022-08-30T05:02:59;11.10;;;6.53;;
54977;SDS011;40873;47.522;19.106;2022-08-30T05:05:26;14.10;;;8.40;;
54977;SDS011;40873;47.522;19.106;2022-08-30T05:08:06;9.77;;;7.03;;
54977;SDS011;40873;47.522;19.106;2022-08-30T05:10:35;11.23;;;7.65;;
54977;SDS011;40873;47.522;19.106;2022-08-30T05:13:04;9.65;;;7.18;;
54977;SDS011;40873;47.522;19.106;2022-08-30T05:15:31;11.73;;;7.45;;
54977;SDS011;40873;47.522;19.106;2022-08-30T05:17:58;12.25;;;7.85;;
54977;SDS011;40873;47.522;19.106;2022-08-30T05:20:25;13.07;;;8.02;;
54977;SDS011;40873;47.522;19.106;2022-08-30T05:22:52;12.63;;;7.88;;
54977;SDS011;40873;47.522;19.106;2022-08-30T05:25:21;15.60;;;7.63;;
54977;SDS011;40873;47.522;19.106;2022-08-30T05:27:50;14.65;;;7.78;;
54977;SDS011;40873;47.522;19.106;2022-08-30T05:30:18;11.30;;;7.95;;
54977;SDS011;40873;47.522;19.106;2022-08-30T05:32:46;12.43;;;8.35;;
54977;SDS011;40873;47.522;19.106;2022-08-30T05:35:13;11.73;;;7.97;;
54977;SDS011;40873;47.522;19.106;2022-08-30T05:37:42;14.23;;;8.18;;
54977;SDS011;40873;47.522;19.106;2022-08-30T05:40:09;12.77;;;8.85;;
54977;SDS011;40873;47.522;19.106;2022-08-30T05:42:37;14.20;;;8.85;;
54977;SDS011;40873;47.522;19.106;2022-08-30T05:45:07;18.27;;;11.73;;
54977;SDS011;40873;47.522;19.106;2022-08-30T05:47:35;16.83;;;10.98;;
54977;SDS011;40873;47.522;19.106;2022-08-30T05:50:03;17.02;;;10.80;;
54977;SDS011;40873;47.522;19.106;2022-08-30T05:52:36;18.60;;;12.60;;
54977;SDS011;40873;47.522;19.106;2022-08-30T05:55:05;15.60;;;10.70;;
54977;SDS011;40873;47.522;19.106;2022-08-30T05:57:34;12.00;;;8.52;;
54977;SDS011;40873;47.522;19.106;2022-08-30T06:00:07;17.00;;;8.82;;
54977;SDS011;40873;47.522;19.106;2022-08-30T06:02:36;11.05;;;7.15;;
54977;SDS011;40873;47.522;19.106;2022-08-30T06:05:03;11.20;;;7.80;;
54977;SDS011;40873;47.522;19.106;2022-08-30T06:07:31;11.50;;;8.30;;
54977;SDS011;40873;47.522;19.106;2022-08-30T06:09:58;10.90;;;7.75;;
54977;SDS011;40873;47.522;19.106;2022-08-30T06:12:25;20.45;;;8.27;;
54977;SDS011;40873;47.522;19.106;2022-08-30T06:14:52;12.70;;;7.35;;
54977;SDS011;40873;47.522;19.106;2022-08-30T06:17:19;11.38;;;7.32;;
54977;SDS011;40873;47.522;19.106;2022-08-30T06:19:46;14.65;;;7.75;;
54977;SDS011;40873;47.522;19.106;2022-08-30T06:22:13;11.15;;;6.93;;
54977;SDS011;40873;47.522;19.106;2022-08-30T06:24:40;9.73;;;7.53;;
54977;SDS011;40873;47.522;19.106;2022-08-30T06:27:23;10.53;;;7.03;;
54977;SDS011;40873;47.522;19.106;2022-08-30T06:29:50;9.32;;;5.75;;
54977;SDS011;40873;47.522;19.106;2022-08-30T06:32:18;12.48;;;7.53;;
54977;SDS011;40873;47.522;19.106;2022-08-30T06:34:45;11.45;;;6.82;;
54977;SDS011;40873;47.522;19.106;2022-08-30T06:37:12;10.07;;;6.63;;
54977;SDS011;40873;47.522;19.106;2022-08-30T06:39:55;15.98;;;6.25;;
54977;SDS011;40873;47.522;19.106;2022-08-30T06:42:23;10.95;;;6.55;;
54977;SDS011;40873;47.522;19.106;2022-08-30T06:44:57;10.73;;;6.35;;
54977;SDS011;40873;47.522;19.106;2022-08-30T06:47:36;11.63;;;6.75;;
54977;SDS011;40873;47.522;19.106;2022-08-30T06:50:03;9.20;;;6.03;;
54977;SDS011;40873;47.522;19.106;2022-08-30T06:52:30;9.50;;;6.03;;
54977;SDS011;40873;47.522;19.106;2022-08-30T06:54:57;10.68;;;5.80;;
54977;SDS011;40873;47.522;19.106;2022-08-30T18:49:29;6.95;;;3.90;;
54977;SDS011;40873;47.522;19.106;2022-08-30T18:51:58;8.38;;;4.07;;
54977;SDS011;40873;47.522;19.106;2022-08-30T18:54:27;7.25;;;3.65;;
54977;SDS011;40873;47.522;19.106;2022-08-30T18:56:54;6.13;;;3.25;;
54977;SDS011;40873;47.522;19.106;2022-08-30T18:59:21;6.40;;;3.83;;
54977;SDS011;40873;47.522;19.106;2022-08-30T19:02:00;8.02;;;3.38;;
54977;SDS011;40873;47.522;19.106;2022-08-30T19:04:28;4.53;;;3.22;;
54977;SDS011;40873;47.522;19.106;2022-08-30T19:07:02;6.20;;;3.72;;
54977;SDS011;40873;47.522;19.106;2022-08-30T19:09:33;5.63;;;3.63;;
54977;SDS011;40873;47.522;19.106;2022-08-30T19:12:01;6.63;;;4.00;;
54977;SDS011;40873;47.522;19.106;2022-08-30T19:14:35;4.70;;;3.13;;
54977;SDS011;40873;47.522;19.106;2022-08-30T19:17:02;5.63;;;3.65;;
54977;SDS011;40873;47.522;19.106;2022-08-30T19:19:32;7.57;;;4.20;;
54977;SDS011;40873;47.522;19.106;2022-08-30T19:22:01;6.70;;;3.70;;
54977;SDS011;40873;47.522;19.106;2022-08-30T19:24:28;7.13;;;3.80;;
54977;SDS011;40873;47.522;19.106;2022-08-30T19:26:55;9.15;;;3.45;;
54977;SDS011;40873;47.522;19.106;2022-08-30T19:29:22;7.18;;;3.78;;
54977;SDS011;40873;47.522;19.106;2022-08-30T19:31:49;4.85;;;2.85;;
54977;SDS011;40873;47.522;19.106;2022-08-30T19:34:17;6.55;;;3.70;;
54977;SDS011;40873;47.522;19.106;2022-08-30T19:36:44;7.10;;;3.95;;
54977;SDS011;40873;47.522;19.106;2022-08-30T19:39:12;5.22;;;3.70;;
54977;SDS011;40873;47.522;19.106;2022-08-30T19:41:40;7.10;;;3.92;;
54977;SDS011;40873;47.522;19.106;2022-08-30T19:44:07;7.30;;;3.60;;
54977;SDS011;40873;47.522;19.106;2022-08-30T19:46:35;9.20;;;4.70;;
54977;SDS011;40873;47.522;19.106;2022-08-30T19:49:02;9.02;;;4.10;;
54977;SDS011;40873;47.522;19.106;2022-08-30T19:51:32;8.07;;;4.80;;
54977;SDS011;40873;47.522;19.106;2022-08-30T19:54:01;7.28;;;3.97;;
54977;SDS011;40873;47.522;19.106;2022-08-30T19:56:28;6.50;;;4.60;;
54977;SDS011;40873;47.522;19.106;2022-08-30T19:58:55;9.65;;;4.20;;
54977;SDS011;40873;47.522;19.106;2022-08-30T20:01:23;7.78;;;4.30;;
54977;SDS011;40873;47.522;19.106;2022-08-30T20:03:59;6.13;;;4.55;;
54977;SDS011;40873;47.522;19.106;2022-08-30T20:06:27;8.85;;;4.40;;
54977;SDS011;40873;47.522;19.106;2022-08-30T20:08:56;10.63;;;4.70;;
54977;SDS011;40873;47.522;19.106;2022-08-30T20:11:26;8.05;;;4.25;;
54977;SDS011;40873;47.522;19.106;2022-08-30T20:13:54;7.93;;;4.78;;
54977;SDS011;40873;47.522;19.106;2022-08-30T20:16:22;7.50;;;4.15;;
54977;SDS011;40873;47.522;19.106;2022-08-30T20:19:03;7.28;;;3.50;;
54977;SDS011;40873;47.522;19.106;2022-08-30T20:21:32;8.25;;;4.15;;
54977;SDS011;40873;47.522;19.106;2022-08-30T20:24:01;8.88;;;3.35;;
54977;SDS011;40873;47.522;19.106;2022-08-30T20:26:30;7.90;;;3.72;;
54977;SDS011;40873;47.522;19.106;2022-08-30T20:29:00;6.72;;;4.10;;
54977;SDS011;40873;47.522;19.106;2022-08-30T20:31:28;6.05;;;3.70;;
54977;SDS011;40873;47.522;19.106;2022-08-30T20:33:56;6.93;;;3.50;;
54977;SDS011;40873;47.522;19.106;2022-08-30T20:36:23;7.45;;;3.28;;
54977;SDS011;40873;47.522;19.106;2022-08-30T20:38:50;9.80;;;4.32;;
54977;SDS011;40873;47.522;19.106;2022-08-30T20:41:17;6.10;;;4.05;;
54977;SDS011;40873;47.522;19.106;2022-08-30T20:43:46;5.38;;;4.10;;
54977;SDS011;40873;47.522;19.106;2022-08-30T20:46:15;4.82;;;3.65;;
54977;SDS011;40873;47.522;19.106;2022-08-30T20:48:45;8.00;;;4.35;;
54977;SDS011;40873;47.522;19.106;2022-08-30T20:51:14;7.93;;;4.78;;
54977;SDS011;40873;47.522;19.106;2022-08-30T20:53:47;7.20;;;4.25;;
54977;SDS011;40873;47.522;19.106;2022-08-30T20:56:15;6.55;;;3.83;;
54977;SDS011;40873;47.522;19.106;2022-08-30T20:58:44;5.18;;;3.70;;
54977;SDS011;40873;47.522;19.106;2022-08-30T21:01:11;8.23;;;4.10;;
54977;SDS011;40873;47.522;19.106;2022-08-30T21:03:39;6.57;;;5.03;;
54977;SDS011;40873;47.522;19.106;2022-08-30T21:06:06;12.35;;;5.18;;
54977;SDS011;40873;47.522;19.106;2022-08-30T21:08:33;11.02;;;4.63;;
54977;SDS011;40873;47.522;19.106;2022-08-30T21:11:00;7.45;;;4.40;;
54977;SDS011;40873;47.522;19.106;2022-08-30T21:13:27;9.93;;;4.75;;
54977;SDS011;40873;47.522;19.106;2022-08-30T21:15:56;7.22;;;4.35;;
54977;SDS011;40873;47.522;19.106;2022-08-30T21:18:29;7.15;;;4.45;;
54977;SDS011;40873;47.522;19.106;2022-08-30T21:20:59;11.32;;;4.68;;
54977;SDS011;40873;47.522;19.106;2022-08-30T21:23:47;9.93;;;5.68;;
54977;SDS011;40873;47.522;19.106;2022-08-30T21:26:15;10.48;;;5.22;;
54977;SDS011;40873;47.522;19.106;2022-08-30T21:28:53;11.40;;;5.20;;
54977;SDS011;40873;47.522;19.106;2022-08-30T21:31:21;10.40;;;4.43;;
54977;SDS011;40873;47.522;19.106;2022-08-30T21:33:50;9.90;;;5.10;;
54977;SDS011;40873;47.522;19.106;2022-08-30T21:36:19;11.80;;;4.97;;
54977;SDS011;40873;47.522;19.106;2022-08-30T21:39:06;10.30;;;5.15;;
54977;SDS011;40873;47.522;19.106;2022-08-30T21:41:33;9.07;;;4.38;;
54977;SDS011;40873;47.522;19.106;2022-08-30T21:44:04;8.30;;;5.07;;
54977;SDS011;40873;47.522;19.106;2022-08-30T21:46:34;7.95;;;5.95;;
54977;SDS011;40873;47.522;19.106;2022-08-30T21:49:02;8.93;;;5.55;;
54977;SDS011;40873;47.522;19.106;2022-08-30T21:51:32;12.02;;;5.10;;
54977;SDS011;40873;47.522;19.106;2022-08-30T21:54:02;9.98;;;5.45;;
54977;SDS011;40873;47.522;19.106;2022-08-30T21:56:32;9.88;;;6.45;;
54977;SDS011;40873;47.522;19.106;2022-08-30T21:58:59;6.75;;;4.85;;
54977;SDS011;40873;47.522;19.106;2022-08-30T22:01:27;11.48;;;5.35;;
54977;SDS011;40873;47.522;19.106;2022-08-30T22:03:56;14.38;;;5.25;;
54977;SDS011;40873;47.522;19.106;2022-08-30T22:06:26;9.35;;;4.82;;
54977;SDS011;40873;47.522;19.106;2022-08-30T22:08:57;9.43;;;4.95;;
54977;SDS011;40873;47.522;19.106;2022-08-30T22:11:26;8.55;;;4.55;;
54977;SDS011;40873;47.522;19.106;2022-08-30T22:13:54;8.55;;;4.70;;
54977;SDS011;40873;47.522;19.106;2022-08-30T22:16:22;8.45;;;4.47;;
54977;SDS011;40873;47.522;19.106;2022-08-30T22:18:49;9.38;;;5.28;;
54977;SDS011;40873;47.522;19.106;2022-08-30T22:21:18;9.80;;;5.40;;
54977;SDS011;40873;47.522;19.106;2022-08-30T22:23:47;8.18;;;4.78;;
54977;SDS011;40873;47.522;19.106;2022-08-30T22:26:15;9.60;;;6.28;;
54977;SDS011;40873;47.522;19.106;2022-08-30T22:28:43;6.15;;;4.88;;
54977;SDS011;40873;47.522;19.106;2022-08-30T22:31:11;8.88;;;5.20;;
54977;SDS011;40873;47.522;19.106;2022-08-30T22:33:42;7.53;;;4.55;;
54977;SDS011;40873;47.522;19.106;2022-08-30T22:36:12;8.30;;;4.50;;
54977;SDS011;40873;47.522;19.106;2022-08-30T22:38:44;10.60;;;4.50;;
54977;SDS011;40873;47.522;19.106;2022-08-30T22:41:12;7.43;;;4.50;;
54977;SDS011;40873;47.522;19.106;2022-08-30T22:43:42;10.68;;;4.93;;
54977;SDS011;40873;47.522;19.106;2022-08-30T22:46:09;20.17;;;5.88;;
54977;SDS011;40873;47.522;19.106;2022-08-30T22:48:38;7.90;;;5.88;;
54977;SDS011;40873;47.522;19.106;2022-08-30T22:51:06;7.72;;;4.68;;
54977;SDS011;40873;47.522;19.106;2022-08-30T22:53:34;8.48;;;4.63;;
54977;SDS011;40873;47.522;19.106;2022-08-30T22:56:35;6.95;;;5.18;;
54977;SDS011;40873;47.522;19.106;2022-08-30T22:58:56;8.23;;;5.47;;
54977;SDS011;40873;47.522;19.106;2022-08-30T23:03:55;7.63;;;4.53;;
54977;SDS011;40873;47.522;19.106;2022-08-30T23:06:24;10.30;;;4.90;;
54977;SDS011;40873;47.522;19.106;2022-08-30T23:08:51;7.20;;;4.72;;
54977;SDS011;40873;47.522;19.106;2022-08-30T23:11:18;9.73;;;5.03;;
54977;SDS011;40873;47.522;19.106;2022-08-30T23:13:45;7.88;;;4.88;;
54977;SDS011;40873;47.522;19.106;2022-08-30T23:16:13;7.72;;;5.10;;
54977;SDS011;40873;47.522;19.106;2022-08-30T23:18:42;9.90;;;5.43;;
54977;SDS011;40873;47.522;19.106;2022-08-30T23:21:11;9.13;;;4.60;;
54977;SDS011;40873;47.522;19.106;2022-08-30T23:23:39;9.02;;;5.25;;
54977;SDS011;40873;47.522;19.106;2022-08-30T23:26:25;8.80;;;4.93;;
54977;SDS011;40873;47.522;19.106;2022-08-30T23:29:10;6.85;;;4.57;;
54977;SDS011;40873;47.522;19.106;2022-08-30T23:31:57;12.13;;;5.40;;
54977;SDS011;40873;47.522;19.106;2022-08-30T23:34:42;8.00;;;4.85;;
54977;SDS011;40873;47.522;19.106;2022-08-30T23:37:28;10.98;;;5.18;;
54977;SDS011;40873;47.522;19.106;2022-08-30T23:40:19;8.57;;;7.25;;
54977;SDS011;40873;47.522;19.106;2022-08-30T23:43:06;8.93;;;4.97;;
54977;SDS011;40873;47.522;19.106;2022-08-30T23:45:52;8.38;;;5.47;;
54977;SDS011;40873;47.522;19.106;2022-08-30T23:48:45;10.18;;;5.72;;
54977;SDS011;40873;47.522;19.106;2022-08-30T23:51:32;8.10;;;5.03;;
54977;SDS011;40873;47.522;19.106;2022-08-30T23:54:18;7.85;;;4.75;;
54977;SDS011;40873;47.522;19.106;2022-08-30T23:57:03;9.73;;;5.75;;
54977;SDS011;40873;47.522;19.106;2022-08-30T23:59:50;11.50;;;5.38;;
